sensor_id;sensor_type;location;lat;lon;timestamp;P1;durP1;ratioP1;P2;durP2;ratioP2
15412;SDS011;7805;49.554;7.632;2023-04-15T00:01:57;2.10;;;1.80;;
15412;SDS011;7805;49.554;7.632;2023-04-15T00:04:23;3.13;;;1.80;;
15412;SDS011;7805;49.554;7.632;2023-04-15T00:06:50;4.03;;;1.77;;
15412;SDS011;7805;49.554;7.632;2023-04-15T00:09:19;3.67;;;1.73;;
15412;SDS011;7805;49.554;7.632;2023-04-15T00:11:45;4.73;;;2.00;;
15412;SDS011;7805;49.554;7.632;2023-04-15T00:14:13;2.87;;;2.00;;
15412;SDS011;7805;49.554;7.632;2023-04-15T00:16:39;4.03;;;2.20;;
15412;SDS011;7805;49.554;7.632;2023-04-15T00:19:05;4.13;;;1.97;;
15412;SDS011;7805;49.554;7.632;2023-04-15T00:21:31;4.50;;;1.93;;
15412;SDS011;7805;49.554;7.632;2023-04-15T00:23:56;3.43;;;1.70;;
15412;SDS011;7805;49.554;7.632;2023-04-15T00:26:22;4.27;;;1.87;;
15412;SDS011;7805;49.554;7.632;2023-04-15T00:28:47;2.33;;;1.97;;
15412;SDS011;7805;49.554;7.632;2023-04-15T00:31:13;2.13;;;1.80;;
15412;SDS011;7805;49.554;7.632;2023-04-15T00:33:39;2.50;;;2.00;;
15412;SDS011;7805;49.554;7.632;2023-04-15T00:36:05;3.57;;;2.07;;
15412;SDS011;7805;49.554;7.632;2023-04-15T00:38:31;3.00;;;2.00;;
15412;SDS011;7805;49.554;7.632;2023-04-15T00:40:57;6.70;;;2.10;;
15412;SDS011;7805;49.554;7.632;2023-04-15T00:43:23;4.57;;;2.03;;
15412;SDS011;7805;49.554;7.632;2023-04-15T00:45:50;2.83;;;1.53;;
15412;SDS011;7805;49.554;7.632;2023-04-15T00:48:17;1.77;;;1.67;;
15412;SDS011;7805;49.554;7.632;2023-04-15T00:50:44;4.20;;;2.00;;
15412;SDS011;7805;49.554;7.632;2023-04-15T00:53:09;3.87;;;1.80;;
15412;SDS011;7805;49.554;7.632;2023-04-15T00:55:35;4.10;;;1.70;;
15412;SDS011;7805;49.554;7.632;2023-04-15T00:58:01;2.97;;;1.57;;
15412;SDS011;7805;49.554;7.632;2023-04-15T01:00:27;3.83;;;1.90;;
15412;SDS011;7805;49.554;7.632;2023-04-15T01:02:54;2.73;;;1.40;;
15412;SDS011;7805;49.554;7.632;2023-04-15T01:05:19;6.23;;;1.93;;
15412;SDS011;7805;49.554;7.632;2023-04-15T01:07:45;2.93;;;2.50;;
15412;SDS011;7805;49.554;7.632;2023-04-15T01:10:12;5.27;;;2.07;;
15412;SDS011;7805;49.554;7.632;2023-04-15T01:12:38;6.97;;;2.13;;
15412;SDS011;7805;49.554;7.632;2023-04-15T01:15:04;1.93;;;1.60;;
15412;SDS011;7805;49.554;7.632;2023-04-15T01:17:30;4.60;;;2.13;;
15412;SDS011;7805;49.554;7.632;2023-04-15T01:19:56;4.53;;;1.97;;
15412;SDS011;7805;49.554;7.632;2023-04-15T01:22:23;4.83;;;2.10;;
15412;SDS011;7805;49.554;7.632;2023-04-15T01:24:53;3.50;;;2.50;;
15412;SDS011;7805;49.554;7.632;2023-04-15T01:27:23;8.93;;;2.20;;
15412;SDS011;7805;49.554;7.632;2023-04-15T01:29:50;4.47;;;2.13;;
15412;SDS011;7805;49.554;7.632;2023-04-15T01:32:15;3.33;;;2.30;;
15412;SDS011;7805;49.554;7.632;2023-04-15T01:34:41;4.87;;;2.37;;
15412;SDS011;7805;49.554;7.632;2023-04-15T01:37:06;2.77;;;2.07;;
15412;SDS011;7805;49.554;7.632;2023-04-15T01:39:32;2.60;;;2.00;;
15412;SDS011;7805;49.554;7.632;2023-04-15T01:41:58;6.30;;;2.50;;
15412;SDS011;7805;49.554;7.632;2023-04-15T01:44:23;6.40;;;1.80;;
15412;SDS011;7805;49.554;7.632;2023-04-15T01:46:49;1.70;;;1.60;;
15412;SDS011;7805;49.554;7.632;2023-04-15T01:49:15;1.93;;;1.60;;
15412;SDS011;7805;49.554;7.632;2023-04-15T01:51:40;2.83;;;1.43;;
15412;SDS011;7805;49.554;7.632;2023-04-15T01:54:06;2.40;;;1.70;;
15412;SDS011;7805;49.554;7.632;2023-04-15T01:56:32;2.97;;;1.87;;
15412;SDS011;7805;49.554;7.632;2023-04-15T01:58:57;3.63;;;2.27;;
15412;SDS011;7805;49.554;7.632;2023-04-15T02:01:23;7.00;;;2.07;;
15412;SDS011;7805;49.554;7.632;2023-04-15T02:03:48;3.23;;;2.10;;
15412;SDS011;7805;49.554;7.632;2023-04-15T02:06:14;4.33;;;2.10;;
15412;SDS011;7805;49.554;7.632;2023-04-15T02:08:40;3.47;;;2.13;;
15412;SDS011;7805;49.554;7.632;2023-04-15T02:11:06;5.07;;;2.20;;
15412;SDS011;7805;49.554;7.632;2023-04-15T02:13:32;4.67;;;2.37;;
15412;SDS011;7805;49.554;7.632;2023-04-15T02:15:57;2.73;;;2.13;;
15412;SDS011;7805;49.554;7.632;2023-04-15T02:18:23;5.77;;;2.13;;
15412;SDS011;7805;49.554;7.632;2023-04-15T02:20:50;2.57;;;2.00;;
15412;SDS011;7805;49.554;7.632;2023-04-15T02:23:16;6.27;;;2.57;;
15412;SDS011;7805;49.554;7.632;2023-04-15T02:25:41;5.17;;;2.73;;
15412;SDS011;7805;49.554;7.632;2023-04-15T02:28:07;4.13;;;2.50;;
15412;SDS011;7805;49.554;7.632;2023-04-15T02:30:32;10.00;;;2.60;;
15412;SDS011;7805;49.554;7.632;2023-04-15T02:33:01;3.00;;;2.60;;
15412;SDS011;7805;49.554;7.632;2023-04-15T02:35:27;5.30;;;2.80;;
15412;SDS011;7805;49.554;7.632;2023-04-15T02:37:52;10.63;;;3.77;;
15412;SDS011;7805;49.554;7.632;2023-04-15T02:40:18;4.70;;;3.40;;
15412;SDS011;7805;49.554;7.632;2023-04-15T02:42:44;5.57;;;3.70;;
15412;SDS011;7805;49.554;7.632;2023-04-15T02:45:10;4.23;;;2.73;;
15412;SDS011;7805;49.554;7.632;2023-04-15T02:47:38;6.47;;;3.13;;
15412;SDS011;7805;49.554;7.632;2023-04-15T02:50:09;8.70;;;2.50;;
15412;SDS011;7805;49.554;7.632;2023-04-15T02:52:37;15.10;;;3.40;;
15412;SDS011;7805;49.554;7.632;2023-04-15T02:55:04;6.77;;;2.93;;
15412;SDS011;7805;49.554;7.632;2023-04-15T02:57:30;5.67;;;3.17;;
15412;SDS011;7805;49.554;7.632;2023-04-15T02:59:55;6.87;;;3.13;;
15412;SDS011;7805;49.554;7.632;2023-04-15T03:02:21;4.53;;;2.70;;
15412;SDS011;7805;49.554;7.632;2023-04-15T03:04:47;7.77;;;2.83;;
15412;SDS011;7805;49.554;7.632;2023-04-15T03:07:13;4.57;;;2.73;;
15412;SDS011;7805;49.554;7.632;2023-04-15T03:09:38;5.73;;;3.43;;
15412;SDS011;7805;49.554;7.632;2023-04-15T03:12:05;8.00;;;3.33;;
15412;SDS011;7805;49.554;7.632;2023-04-15T03:14:31;5.97;;;2.90;;
15412;SDS011;7805;49.554;7.632;2023-04-15T03:16:56;4.77;;;2.97;;
15412;SDS011;7805;49.554;7.632;2023-04-15T03:19:23;5.03;;;3.07;;
15412;SDS011;7805;49.554;7.632;2023-04-15T03:21:49;7.10;;;3.40;;
15412;SDS011;7805;49.554;7.632;2023-04-15T03:24:16;4.80;;;2.73;;
15412;SDS011;7805;49.554;7.632;2023-04-15T03:26:41;6.70;;;3.00;;
15412;SDS011;7805;49.554;7.632;2023-04-15T03:29:07;10.13;;;3.00;;
15412;SDS011;7805;49.554;7.632;2023-04-15T03:31:32;4.73;;;3.23;;
15412;SDS011;7805;49.554;7.632;2023-04-15T03:33:58;7.37;;;3.60;;
15412;SDS011;7805;49.554;7.632;2023-04-15T03:36:24;12.27;;;3.23;;
15412;SDS011;7805;49.554;7.632;2023-04-15T03:38:50;5.50;;;3.40;;
15412;SDS011;7805;49.554;7.632;2023-04-15T03:41:15;7.97;;;3.37;;
15412;SDS011;7805;49.554;7.632;2023-04-15T03:43:41;3.77;;;3.20;;
15412;SDS011;7805;49.554;7.632;2023-04-15T03:46:06;8.20;;;3.13;;
15412;SDS011;7805;49.554;7.632;2023-04-15T03:48:32;7.10;;;2.90;;
15412;SDS011;7805;49.554;7.632;2023-04-15T03:50:58;5.77;;;2.90;;
15412;SDS011;7805;49.554;7.632;2023-04-15T03:53:23;13.63;;;3.43;;
15412;SDS011;7805;49.554;7.632;2023-04-15T03:55:49;6.07;;;3.47;;
15412;SDS011;7805;49.554;7.632;2023-04-15T03:58:14;6.30;;;3.27;;
15412;SDS011;7805;49.554;7.632;2023-04-15T04:00:40;7.40;;;3.03;;
15412;SDS011;7805;49.554;7.632;2023-04-15T04:03:06;5.07;;;3.03;;
15412;SDS011;7805;49.554;7.632;2023-04-15T04:05:32;6.10;;;3.30;;
15412;SDS011;7805;49.554;7.632;2023-04-15T04:07:57;6.70;;;3.60;;
15412;SDS011;7805;49.554;7.632;2023-04-15T04:10:23;4.00;;;2.63;;
15412;SDS011;7805;49.554;7.632;2023-04-15T04:12:48;7.77;;;3.00;;
15412;SDS011;7805;49.554;7.632;2023-04-15T04:15:14;7.90;;;2.70;;
15412;SDS011;7805;49.554;7.632;2023-04-15T04:17:40;5.47;;;2.90;;
15412;SDS011;7805;49.554;7.632;2023-04-15T04:20:06;5.80;;;3.00;;
15412;SDS011;7805;49.554;7.632;2023-04-15T04:22:36;4.47;;;2.90;;
15412;SDS011;7805;49.554;7.632;2023-04-15T04:25:05;15.40;;;3.23;;
15412;SDS011;7805;49.554;7.632;2023-04-15T04:27:32;3.90;;;2.73;;
15412;SDS011;7805;49.554;7.632;2023-04-15T04:29:58;9.93;;;2.93;;
15412;SDS011;7805;49.554;7.632;2023-04-15T04:32:24;6.30;;;2.63;;
15412;SDS011;7805;49.554;7.632;2023-04-15T04:34:50;6.10;;;2.93;;
15412;SDS011;7805;49.554;7.632;2023-04-15T04:37:15;8.43;;;2.53;;
15412;SDS011;7805;49.554;7.632;2023-04-15T04:39:41;8.97;;;3.07;;
15412;SDS011;7805;49.554;7.632;2023-04-15T04:42:06;5.50;;;3.03;;
15412;SDS011;7805;49.554;7.632;2023-04-15T04:44:32;5.93;;;3.43;;
15412;SDS011;7805;49.554;7.632;2023-04-15T04:46:57;6.23;;;2.80;;
15412;SDS011;7805;49.554;7.632;2023-04-15T04:49:23;4.87;;;3.13;;
15412;SDS011;7805;49.554;7.632;2023-04-15T04:51:49;6.20;;;3.20;;
15412;SDS011;7805;49.554;7.632;2023-04-15T04:54:14;3.47;;;2.70;;
15412;SDS011;7805;49.554;7.632;2023-04-15T04:56:40;4.00;;;2.43;;
15412;SDS011;7805;49.554;7.632;2023-04-15T04:59:06;4.10;;;3.00;;
15412;SDS011;7805;49.554;7.632;2023-04-15T05:01:32;4.90;;;2.47;;
15412;SDS011;7805;49.554;7.632;2023-04-15T05:03:58;5.37;;;2.50;;
15412;SDS011;7805;49.554;7.632;2023-04-15T05:06:24;3.90;;;2.63;;
15412;SDS011;7805;49.554;7.632;2023-04-15T05:08:50;6.33;;;3.83;;
15412;SDS011;7805;49.554;7.632;2023-04-15T05:11:15;6.37;;;3.60;;
15412;SDS011;7805;49.554;7.632;2023-04-15T05:13:41;5.83;;;3.10;;
15412;SDS011;7805;49.554;7.632;2023-04-15T05:16:07;7.37;;;3.10;;
15412;SDS011;7805;49.554;7.632;2023-04-15T05:18:33;8.97;;;5.03;;
15412;SDS011;7805;49.554;7.632;2023-04-15T05:20:59;9.00;;;4.43;;
15412;SDS011;7805;49.554;7.632;2023-04-15T05:23:24;7.67;;;4.13;;
15412;SDS011;7805;49.554;7.632;2023-04-15T05:25:50;7.87;;;3.93;;
15412;SDS011;7805;49.554;7.632;2023-04-15T05:28:16;6.13;;;3.00;;
15412;SDS011;7805;49.554;7.632;2023-04-15T05:30:41;9.03;;;5.70;;
15412;SDS011;7805;49.554;7.632;2023-04-15T05:33:07;4.47;;;3.77;;
15412;SDS011;7805;49.554;7.632;2023-04-15T05:35:33;7.27;;;4.13;;
15412;SDS011;7805;49.554;7.632;2023-04-15T05:37:58;11.50;;;4.57;;
15412;SDS011;7805;49.554;7.632;2023-04-15T05:40:24;10.37;;;4.53;;
15412;SDS011;7805;49.554;7.632;2023-04-15T05:42:50;5.53;;;4.00;;
15412;SDS011;7805;49.554;7.632;2023-04-15T05:45:16;6.87;;;3.97;;
15412;SDS011;7805;49.554;7.632;2023-04-15T05:47:41;8.93;;;4.40;;
15412;SDS011;7805;49.554;7.632;2023-04-15T05:50:07;7.70;;;4.37;;
15412;SDS011;7805;49.554;7.632;2023-04-15T05:52:33;5.03;;;3.43;;
15412;SDS011;7805;49.554;7.632;2023-04-15T05:54:58;8.23;;;3.97;;
15412;SDS011;7805;49.554;7.632;2023-04-15T05:57:24;9.10;;;4.83;;
15412;SDS011;7805;49.554;7.632;2023-04-15T05:59:50;6.43;;;5.20;;
15412;SDS011;7805;49.554;7.632;2023-04-15T06:02:16;11.87;;;7.53;;
15412;SDS011;7805;49.554;7.632;2023-04-15T06:04:42;6.67;;;5.83;;
15412;SDS011;7805;49.554;7.632;2023-04-15T06:07:08;8.30;;;5.73;;
15412;SDS011;7805;49.554;7.632;2023-04-15T06:09:33;8.40;;;4.83;;
15412;SDS011;7805;49.554;7.632;2023-04-15T06:12:00;7.97;;;5.30;;
15412;SDS011;7805;49.554;7.632;2023-04-15T06:14:26;7.87;;;5.03;;
15412;SDS011;7805;49.554;7.632;2023-04-15T06:16:51;6.13;;;4.87;;
15412;SDS011;7805;49.554;7.632;2023-04-15T06:19:17;6.67;;;5.27;;
15412;SDS011;7805;49.554;7.632;2023-04-15T06:21:43;8.63;;;4.50;;
15412;SDS011;7805;49.554;7.632;2023-04-15T06:24:09;6.73;;;3.60;;
15412;SDS011;7805;49.554;7.632;2023-04-15T06:26:35;12.80;;;4.10;;
15412;SDS011;7805;49.554;7.632;2023-04-15T06:29:00;6.47;;;3.30;;
15412;SDS011;7805;49.554;7.632;2023-04-15T06:31:26;9.53;;;3.37;;
15412;SDS011;7805;49.554;7.632;2023-04-15T06:33:51;5.93;;;3.63;;
15412;SDS011;7805;49.554;7.632;2023-04-15T06:36:17;15.67;;;8.13;;
15412;SDS011;7805;49.554;7.632;2023-04-15T06:38:43;6.87;;;4.90;;
15412;SDS011;7805;49.554;7.632;2023-04-15T06:41:08;7.17;;;6.43;;
15412;SDS011;7805;49.554;7.632;2023-04-15T06:43:34;6.57;;;3.67;;
15412;SDS011;7805;49.554;7.632;2023-04-15T06:46:00;4.50;;;3.30;;
15412;SDS011;7805;49.554;7.632;2023-04-15T06:48:26;3.97;;;2.90;;
15412;SDS011;7805;49.554;7.632;2023-04-15T06:50:51;5.80;;;4.77;;
15412;SDS011;7805;49.554;7.632;2023-04-15T06:53:17;6.40;;;4.27;;
15412;SDS011;7805;49.554;7.632;2023-04-15T06:55:43;6.50;;;4.70;;
15412;SDS011;7805;49.554;7.632;2023-04-15T06:58:08;5.27;;;4.47;;
15412;SDS011;7805;49.554;7.632;2023-04-15T07:00:34;7.87;;;4.90;;
15412;SDS011;7805;49.554;7.632;2023-04-15T07:03:00;7.40;;;3.90;;
15412;SDS011;7805;49.554;7.632;2023-04-15T07:05:29;5.93;;;3.93;;
15412;SDS011;7805;49.554;7.632;2023-04-15T07:07:55;5.50;;;4.90;;
15412;SDS011;7805;49.554;7.632;2023-04-15T07:10:21;5.30;;;4.10;;
15412;SDS011;7805;49.554;7.632;2023-04-15T07:12:47;6.97;;;4.60;;
15412;SDS011;7805;49.554;7.632;2023-04-15T07:15:13;6.27;;;4.73;;
15412;SDS011;7805;49.554;7.632;2023-04-15T07:17:39;7.13;;;5.27;;
15412;SDS011;7805;49.554;7.632;2023-04-15T07:20:05;7.60;;;6.90;;
15412;SDS011;7805;49.554;7.632;2023-04-15T07:22:32;6.87;;;5.77;;
15412;SDS011;7805;49.554;7.632;2023-04-15T07:24:58;12.23;;;8.07;;
15412;SDS011;7805;49.554;7.632;2023-04-15T07:27:23;9.77;;;7.90;;
15412;SDS011;7805;49.554;7.632;2023-04-15T07:29:50;8.73;;;6.87;;
15412;SDS011;7805;49.554;7.632;2023-04-15T07:32:16;6.97;;;4.80;;
15412;SDS011;7805;49.554;7.632;2023-04-15T07:34:42;6.53;;;4.87;;
15412;SDS011;7805;49.554;7.632;2023-04-15T07:37:08;5.13;;;4.30;;
15412;SDS011;7805;49.554;7.632;2023-04-15T07:39:34;4.87;;;3.27;;
15412;SDS011;7805;49.554;7.632;2023-04-15T07:41:59;4.70;;;3.60;;
15412;SDS011;7805;49.554;7.632;2023-04-15T07:44:26;5.80;;;3.97;;
15412;SDS011;7805;49.554;7.632;2023-04-15T07:46:51;6.03;;;5.53;;
15412;SDS011;7805;49.554;7.632;2023-04-15T07:49:17;10.87;;;6.83;;
15412;SDS011;7805;49.554;7.632;2023-04-15T07:51:43;7.77;;;5.33;;
15412;SDS011;7805;49.554;7.632;2023-04-15T07:54:09;5.87;;;4.20;;
15412;SDS011;7805;49.554;7.632;2023-04-15T07:56:35;4.53;;;3.50;;
15412;SDS011;7805;49.554;7.632;2023-04-15T07:59:00;6.47;;;4.23;;
15412;SDS011;7805;49.554;7.632;2023-04-15T08:01:28;8.97;;;5.73;;
15412;SDS011;7805;49.554;7.632;2023-04-15T08:03:54;6.47;;;4.37;;
15412;SDS011;7805;49.554;7.632;2023-04-15T08:06:21;4.80;;;3.87;;
15412;SDS011;7805;49.554;7.632;2023-04-15T08:08:46;4.80;;;3.50;;
15412;SDS011;7805;49.554;7.632;2023-04-15T08:11:12;3.40;;;3.10;;
15412;SDS011;7805;49.554;7.632;2023-04-15T08:13:38;8.13;;;6.80;;
15412;SDS011;7805;49.554;7.632;2023-04-15T08:16:14;4.43;;;4.00;;
15412;SDS011;7805;49.554;7.632;2023-04-15T08:18:41;4.73;;;2.70;;
15412;SDS011;7805;49.554;7.632;2023-04-15T08:21:06;3.93;;;2.30;;
15412;SDS011;7805;49.554;7.632;2023-04-15T08:23:33;2.83;;;2.47;;
15412;SDS011;7805;49.554;7.632;2023-04-15T08:25:58;5.17;;;3.37;;
15412;SDS011;7805;49.554;7.632;2023-04-15T08:28:24;8.90;;;5.47;;
15412;SDS011;7805;49.554;7.632;2023-04-15T08:30:51;7.13;;;5.73;;
15412;SDS011;7805;49.554;7.632;2023-04-15T08:33:17;7.40;;;4.53;;
15412;SDS011;7805;49.554;7.632;2023-04-15T08:35:43;3.50;;;3.20;;
15412;SDS011;7805;49.554;7.632;2023-04-15T08:38:08;3.73;;;2.43;;
15412;SDS011;7805;49.554;7.632;2023-04-15T08:40:35;5.70;;;4.93;;
15412;SDS011;7805;49.554;7.632;2023-04-15T08:43:06;6.70;;;3.33;;
15412;SDS011;7805;49.554;7.632;2023-04-15T08:45:36;5.43;;;3.23;;
15412;SDS011;7805;49.554;7.632;2023-04-15T08:48:03;6.03;;;4.00;;
15412;SDS011;7805;49.554;7.632;2023-04-15T08:50:30;6.67;;;2.97;;
15412;SDS011;7805;49.554;7.632;2023-04-15T08:52:57;3.60;;;2.50;;
15412;SDS011;7805;49.554;7.632;2023-04-15T08:55:24;4.37;;;3.07;;
15412;SDS011;7805;49.554;7.632;2023-04-15T08:57:53;3.33;;;3.03;;
15412;SDS011;7805;49.554;7.632;2023-04-15T09:00:20;4.47;;;2.30;;
15412;SDS011;7805;49.554;7.632;2023-04-15T09:02:47;5.47;;;2.80;;
15412;SDS011;7805;49.554;7.632;2023-04-15T09:05:13;2.87;;;2.20;;
15412;SDS011;7805;49.554;7.632;2023-04-15T09:07:38;6.47;;;2.07;;
15412;SDS011;7805;49.554;7.632;2023-04-15T09:10:04;3.23;;;2.40;;
15412;SDS011;7805;49.554;7.632;2023-04-15T09:12:32;7.10;;;3.10;;
15412;SDS011;7805;49.554;7.632;2023-04-15T09:15:02;10.60;;;7.33;;
15412;SDS011;7805;49.554;7.632;2023-04-15T09:17:28;8.87;;;6.67;;
15412;SDS011;7805;49.554;7.632;2023-04-15T09:20:10;5.53;;;3.57;;
15412;SDS011;7805;49.554;7.632;2023-04-15T09:22:40;3.90;;;3.40;;
15412;SDS011;7805;49.554;7.632;2023-04-15T09:27:54;3.07;;;1.97;;
15412;SDS011;7805;49.554;7.632;2023-04-15T09:30:20;4.10;;;2.03;;
15412;SDS011;7805;49.554;7.632;2023-04-15T09:32:53;5.47;;;2.10;;
15412;SDS011;7805;49.554;7.632;2023-04-15T09:35:21;8.67;;;4.20;;
15412;SDS011;7805;49.554;7.632;2023-04-15T09:37:48;8.40;;;6.40;;
15412;SDS011;7805;49.554;7.632;2023-04-15T09:40:29;5.80;;;4.30;;
15412;SDS011;7805;49.554;7.632;2023-04-15T09:42:59;4.73;;;2.23;;
15412;SDS011;7805;49.554;7.632;2023-04-15T09:45:26;3.90;;;2.10;;
15412;SDS011;7805;49.554;7.632;2023-04-15T09:47:52;6.83;;;5.00;;
15412;SDS011;7805;49.554;7.632;2023-04-15T09:50:18;4.83;;;2.10;;
15412;SDS011;7805;49.554;7.632;2023-04-15T09:52:44;4.23;;;1.70;;
15412;SDS011;7805;49.554;7.632;2023-04-15T09:55:10;6.50;;;3.47;;
15412;SDS011;7805;49.554;7.632;2023-04-15T09:57:37;6.07;;;3.40;;
15412;SDS011;7805;49.554;7.632;2023-04-15T10:00:05;5.00;;;2.03;;
15412;SDS011;7805;49.554;7.632;2023-04-15T10:02:32;7.37;;;2.27;;
15412;SDS011;7805;49.554;7.632;2023-04-15T10:04:59;3.57;;;2.20;;
15412;SDS011;7805;49.554;7.632;2023-04-15T10:07:26;3.37;;;1.77;;
15412;SDS011;7805;49.554;7.632;2023-04-15T10:09:52;5.87;;;2.50;;
15412;SDS011;7805;49.554;7.632;2023-04-15T10:12:18;4.03;;;1.60;;
15412;SDS011;7805;49.554;7.632;2023-04-15T10:14:52;2.37;;;1.90;;
15412;SDS011;7805;49.554;7.632;2023-04-15T10:17:25;2.63;;;1.83;;
15412;SDS011;7805;49.554;7.632;2023-04-15T10:19:53;3.40;;;1.87;;
15412;SDS011;7805;49.554;7.632;2023-04-15T10:22:20;4.53;;;1.90;;
15412;SDS011;7805;49.554;7.632;2023-04-15T10:24:50;5.97;;;4.53;;
15412;SDS011;7805;49.554;7.632;2023-04-15T10:27:16;4.80;;;2.90;;
15412;SDS011;7805;49.554;7.632;2023-04-15T10:29:43;5.60;;;2.53;;
15412;SDS011;7805;49.554;7.632;2023-04-15T10:32:08;6.50;;;2.70;;
15412;SDS011;7805;49.554;7.632;2023-04-15T10:34:35;2.47;;;1.60;;
15412;SDS011;7805;49.554;7.632;2023-04-15T10:37:01;4.37;;;2.20;;
15412;SDS011;7805;49.554;7.632;2023-04-15T10:39:38;3.20;;;1.60;;
15412;SDS011;7805;49.554;7.632;2023-04-15T10:44:41;3.30;;;1.60;;
15412;SDS011;7805;49.554;7.632;2023-04-15T10:47:15;3.67;;;1.47;;
15412;SDS011;7805;49.554;7.632;2023-04-15T10:49:45;5.30;;;1.60;;
15412;SDS011;7805;49.554;7.632;2023-04-15T10:52:16;4.70;;;1.80;;
15412;SDS011;7805;49.554;7.632;2023-04-15T10:54:46;3.10;;;1.70;;
15412;SDS011;7805;49.554;7.632;2023-04-15T10:57:13;3.67;;;1.73;;
15412;SDS011;7805;49.554;7.632;2023-04-15T11:00:00;4.70;;;1.80;;
15412;SDS011;7805;49.554;7.632;2023-04-15T11:05:15;3.30;;;1.80;;
15412;SDS011;7805;49.554;7.632;2023-04-15T11:12:42;4.37;;;2.20;;
15412;SDS011;7805;49.554;7.632;2023-04-15T11:18:09;3.20;;;2.23;;
15412;SDS011;7805;49.554;7.632;2023-04-15T11:20:40;3.57;;;2.07;;
15412;SDS011;7805;49.554;7.632;2023-04-15T11:23:08;4.17;;;2.20;;
15412;SDS011;7805;49.554;7.632;2023-04-15T11:25:35;4.33;;;2.03;;
15412;SDS011;7805;49.554;7.632;2023-04-15T11:28:03;4.97;;;2.27;;
15412;SDS011;7805;49.554;7.632;2023-04-15T11:30:31;3.50;;;1.77;;
15412;SDS011;7805;49.554;7.632;2023-04-15T11:32:59;3.93;;;2.20;;
15412;SDS011;7805;49.554;7.632;2023-04-15T11:35:26;3.77;;;2.20;;
15412;SDS011;7805;49.554;7.632;2023-04-15T11:37:52;4.47;;;2.30;;
15412;SDS011;7805;49.554;7.632;2023-04-15T11:40:22;4.77;;;2.13;;
15412;SDS011;7805;49.554;7.632;2023-04-15T11:43:05;3.83;;;2.20;;
15412;SDS011;7805;49.554;7.632;2023-04-15T11:45:32;3.13;;;2.10;;
15412;SDS011;7805;49.554;7.632;2023-04-15T11:48:10;3.00;;;1.70;;
15412;SDS011;7805;49.554;7.632;2023-04-15T11:50:37;4.07;;;1.53;;
15412;SDS011;7805;49.554;7.632;2023-04-15T11:53:07;3.13;;;1.40;;
15412;SDS011;7805;49.554;7.632;2023-04-15T11:55:40;2.67;;;1.53;;
15412;SDS011;7805;49.554;7.632;2023-04-15T12:00:40;3.67;;;1.77;;
15412;SDS011;7805;49.554;7.632;2023-04-15T12:03:20;3.53;;;1.43;;
15412;SDS011;7805;49.554;7.632;2023-04-15T12:06:23;3.87;;;1.93;;
15412;SDS011;7805;49.554;7.632;2023-04-15T12:16:34;2.37;;;1.80;;
15412;SDS011;7805;49.554;7.632;2023-04-15T12:19:05;6.40;;;1.67;;
15412;SDS011;7805;49.554;7.632;2023-04-15T12:21:34;3.30;;;1.57;;
15412;SDS011;7805;49.554;7.632;2023-04-15T12:24:02;2.13;;;1.47;;
15412;SDS011;7805;49.554;7.632;2023-04-15T12:26:51;4.10;;;1.90;;
15412;SDS011;7805;49.554;7.632;2023-04-15T12:29:17;3.50;;;1.80;;
15412;SDS011;7805;49.554;7.632;2023-04-15T12:32:26;2.40;;;2.03;;
15412;SDS011;7805;49.554;7.632;2023-04-15T12:34:34;2.03;;;1.53;;
15412;SDS011;7805;49.554;7.632;2023-04-15T12:37:02;1.90;;;1.80;;
15412;SDS011;7805;49.554;7.632;2023-04-15T12:39:31;3.63;;;1.73;;
15412;SDS011;7805;49.554;7.632;2023-04-15T12:42:00;4.17;;;2.40;;
15412;SDS011;7805;49.554;7.632;2023-04-15T12:44:26;3.87;;;1.90;;
15412;SDS011;7805;49.554;7.632;2023-04-15T12:46:52;3.17;;;2.07;;
15412;SDS011;7805;49.554;7.632;2023-04-15T12:49:22;3.60;;;1.80;;
15412;SDS011;7805;49.554;7.632;2023-04-15T12:51:49;2.53;;;1.80;;
15412;SDS011;7805;49.554;7.632;2023-04-15T12:54:17;3.97;;;1.90;;
15412;SDS011;7805;49.554;7.632;2023-04-15T12:56:43;3.50;;;1.73;;
15412;SDS011;7805;49.554;7.632;2023-04-15T12:59:10;2.73;;;1.67;;
15412;SDS011;7805;49.554;7.632;2023-04-15T13:01:36;2.05;;;1.70;;
15412;SDS011;7805;49.554;7.632;2023-04-15T13:04:02;1.67;;;1.30;;
15412;SDS011;7805;49.554;7.632;2023-04-15T13:06:28;2.05;;;1.33;;
15412;SDS011;7805;49.554;7.632;2023-04-15T13:08:54;4.15;;;1.67;;
15412;SDS011;7805;49.554;7.632;2023-04-15T13:11:21;1.70;;;1.30;;
15412;SDS011;7805;49.554;7.632;2023-04-15T13:13:47;2.33;;;1.60;;
15412;SDS011;7805;49.554;7.632;2023-04-15T13:16:12;2.08;;;1.40;;
15412;SDS011;7805;49.554;7.632;2023-04-15T13:18:38;2.25;;;1.50;;
15412;SDS011;7805;49.554;7.632;2023-04-15T13:21:04;1.23;;;1.13;;
15412;SDS011;7805;49.554;7.632;2023-04-15T13:23:31;1.55;;;1.30;;
15412;SDS011;7805;49.554;7.632;2023-04-15T13:25:57;2.58;;;1.73;;
15412;SDS011;7805;49.554;7.632;2023-04-15T13:28:23;2.88;;;2.30;;
15412;SDS011;7805;49.554;7.632;2023-04-15T13:30:48;2.83;;;2.15;;
15412;SDS011;7805;49.554;7.632;2023-04-15T13:33:15;3.17;;;2.47;;
15412;SDS011;7805;49.554;7.632;2023-04-15T13:35:41;4.93;;;2.10;;
15412;SDS011;7805;49.554;7.632;2023-04-15T13:38:06;1.90;;;1.40;;
15412;SDS011;7805;49.554;7.632;2023-04-15T13:40:32;2.10;;;1.47;;
15412;SDS011;7805;49.554;7.632;2023-04-15T13:42:57;3.20;;;1.37;;
15412;SDS011;7805;49.554;7.632;2023-04-15T13:45:24;2.80;;;1.60;;
15412;SDS011;7805;49.554;7.632;2023-04-15T13:47:50;2.37;;;1.80;;
15412;SDS011;7805;49.554;7.632;2023-04-15T13:50:15;2.43;;;1.77;;
15412;SDS011;7805;49.554;7.632;2023-04-15T13:52:41;3.43;;;2.07;;
15412;SDS011;7805;49.554;7.632;2023-04-15T13:55:07;2.30;;;1.50;;
15412;SDS011;7805;49.554;7.632;2023-04-15T13:57:32;1.80;;;1.70;;
15412;SDS011;7805;49.554;7.632;2023-04-15T13:59:58;1.57;;;1.47;;
15412;SDS011;7805;49.554;7.632;2023-04-15T14:02:24;1.63;;;1.53;;
15412;SDS011;7805;49.554;7.632;2023-04-15T14:04:49;2.97;;;1.77;;
15412;SDS011;7805;49.554;7.632;2023-04-15T14:07:15;2.20;;;1.87;;
15412;SDS011;7805;49.554;7.632;2023-04-15T14:09:42;1.70;;;1.60;;
15412;SDS011;7805;49.554;7.632;2023-04-15T14:12:08;1.60;;;1.50;;
15412;SDS011;7805;49.554;7.632;2023-04-15T14:14:34;1.50;;;1.40;;
15412;SDS011;7805;49.554;7.632;2023-04-15T14:16:59;1.40;;;1.30;;
15412;SDS011;7805;49.554;7.632;2023-04-15T14:19:25;1.70;;;0.80;;
15412;SDS011;7805;49.554;7.632;2023-04-15T14:21:50;3.67;;;2.27;;
15412;SDS011;7805;49.554;7.632;2023-04-15T14:24:16;2.50;;;1.63;;
15412;SDS011;7805;49.554;7.632;2023-04-15T14:26:42;1.83;;;1.30;;
15412;SDS011;7805;49.554;7.632;2023-04-15T14:29:08;2.20;;;1.80;;
15412;SDS011;7805;49.554;7.632;2023-04-15T14:31:34;1.67;;;1.57;;
15412;SDS011;7805;49.554;7.632;2023-04-15T14:33:59;2.50;;;1.80;;
15412;SDS011;7805;49.554;7.632;2023-04-15T14:36:25;2.40;;;1.33;;
15412;SDS011;7805;49.554;7.632;2023-04-15T14:38:51;0.73;;;0.70;;
15412;SDS011;7805;49.554;7.632;2023-04-15T14:41:16;2.47;;;1.10;;
15412;SDS011;7805;49.554;7.632;2023-04-15T14:43:42;1.07;;;0.97;;
15412;SDS011;7805;49.554;7.632;2023-04-15T14:46:07;0.90;;;0.90;;
15412;SDS011;7805;49.554;7.632;2023-04-15T14:48:34;0.83;;;0.80;;
15412;SDS011;7805;49.554;7.632;2023-04-15T14:51:00;0.87;;;0.70;;
15412;SDS011;7805;49.554;7.632;2023-04-15T14:53:26;1.20;;;0.80;;
15412;SDS011;7805;49.554;7.632;2023-04-15T14:55:52;3.53;;;1.10;;
15412;SDS011;7805;49.554;7.632;2023-04-15T14:58:17;1.80;;;1.20;;
15412;SDS011;7805;49.554;7.632;2023-04-15T15:00:43;1.37;;;1.27;;
15412;SDS011;7805;49.554;7.632;2023-04-15T15:03:09;2.13;;;1.00;;
15412;SDS011;7805;49.554;7.632;2023-04-15T15:05:39;1.40;;;1.20;;
15412;SDS011;7805;49.554;7.632;2023-04-15T15:08:06;1.30;;;1.10;;
15412;SDS011;7805;49.554;7.632;2023-04-15T15:10:32;3.70;;;1.90;;
15412;SDS011;7805;49.554;7.632;2023-04-15T15:12:58;4.80;;;3.10;;
15412;SDS011;7805;49.554;7.632;2023-04-15T15:15:23;2.13;;;1.93;;
15412;SDS011;7805;49.554;7.632;2023-04-15T15:17:49;2.60;;;2.40;;
15412;SDS011;7805;49.554;7.632;2023-04-15T15:20:15;3.10;;;2.70;;
15412;SDS011;7805;49.554;7.632;2023-04-15T15:22:41;4.03;;;2.53;;
15412;SDS011;7805;49.554;7.632;2023-04-15T15:25:07;2.40;;;2.00;;